Volgo-balt 229 — UHZF — position and weather

sailwx.info

Track history (hours):
 
Tides and Currents Weather Stations Pressure Air Temp Water Temp Dewpoint Dewpoint Depression Visibility Wind Speed Wind Dir Waves Ship Positions

Volgo-balt 229

Last reported at 2017-Mar-29 02:33 UTC. Time now 2017-Mar-29 03:27 UTC.
Position N 56°05' E 012°34'.

Length 113 m; draft 2.7 m.

Type: Ship. MMSI: 273336300.

Date/timePositionNaut miles runAvg speedWind from/ knotsBaromVisibWave heightAir tempDewpointWater temp
2017-Mar-29 02:33N 56°05' E 012°34'7 7.2
2017-Mar-29 01:33N 56°10' E 012°24'68 8.4
2017-Mar-28 17:28N 56°36' E 010°30'  
2017-Mar-25 06:31N 56°12' E 012°22'8 7.9
2017-Mar-25 05:33N 56°07' E 012°33'8 8.2
2017-Mar-25 04:34N 56°00' E 012°41'8 8.2
2017-Mar-25 03:34N 55°52' E 012°44'9 8.5
2017-Mar-25 02:33N 55°44' E 012°41'9 9.0
2017-Mar-25 01:34N 55°35' E 012°42'8 8.2
2017-Mar-25 00:33N 55°26' E 012°42'8 8.0
2017-Mar-24 23:33N 55°18' E 012°43'8 8.1
2017-Mar-24 22:33N 55°16' E 012°56'9 8.3
2017-Mar-24 21:31N 55°15' E 013°11'8 8.2
2017-Mar-24 20:33N 55°15' E 013°25'8 8.2
2017-Mar-24 19:33N 55°15' E 013°39'8 8.3
2017-Mar-24 18:34N 55°14' E 013°54'9 8.4
2017-Mar-24 17:32N 55°14' E 014°09'7 7.4
2017-Mar-24 16:33N 55°17' E 014°20'8 8.1
2017-Mar-24 15:33N 55°23' E 014°29'8 8.0
2017-Mar-24 14:31N 55°29' E 014°40'7 7.7
2017-Mar-24 13:33N 55°33' E 014°51'8 8.1
2017-Mar-24 12:32N 55°37' E 015°04'8 8.5
2017-Mar-24 11:33N 55°41' E 015°17'9 8.5
2017-Mar-24 10:33N 55°45' E 015°30'9 8.5
2017-Mar-24 09:33N 55°49' E 015°43'9 8.7
2017-Mar-24 08:34N 55°54' E 015°57'9 8.7
2017-Mar-24 07:33N 55°58' E 016°10'9 8.7
2017-Mar-24 06:33N 56°02' E 016°24'9 8.8
2017-Mar-24 05:33N 56°07' E 016°37'9 8.8
2017-Mar-24 04:34N 56°12' E 016°50'9 8.7
2017-Mar-24 03:34N 56°17' E 017°02'  
Track history (hours):
 
Tides and Currents Weather Stations Pressure Air Temp Water Temp Dewpoint Dewpoint Depression Visibility Wind Speed Wind Dir Waves Ship Positions

Volgo-balt 229

Last reported at 2017-Mar-29 02:33 UTC. Time now 2017-Mar-29 03:27 UTC.
Position N 56°05' E 012°34'.

Length 113 m; draft 2.7 m.

Type: Ship. MMSI: 273336300.

Date/timePositionNaut miles runAvg speedWind from/ knotsBaromVisibWave heightAir tempDewpointWater temp
2017-Mar-29 02:33N 56°05' E 012°34'7 7.2
2017-Mar-29 01:33N 56°10' E 012°24'68 8.4
2017-Mar-28 17:28N 56°36' E 010°30'  
2017-Mar-25 06:31N 56°12' E 012°22'8 7.9
2017-Mar-25 05:33N 56°07' E 012°33'8 8.2
2017-Mar-25 04:34N 56°00' E 012°41'8 8.2
2017-Mar-25 03:34N 55°52' E 012°44'9 8.5
2017-Mar-25 02:33N 55°44' E 012°41'9 9.0
2017-Mar-25 01:34N 55°35' E 012°42'8 8.2
2017-Mar-25 00:33N 55°26' E 012°42'8 8.0
2017-Mar-24 23:33N 55°18' E 012°43'8 8.1
2017-Mar-24 22:33N 55°16' E 012°56'9 8.3
2017-Mar-24 21:31N 55°15' E 013°11'8 8.2
2017-Mar-24 20:33N 55°15' E 013°25'8 8.2
2017-Mar-24 19:33N 55°15' E 013°39'8 8.3
2017-Mar-24 18:34N 55°14' E 013°54'9 8.4
2017-Mar-24 17:32N 55°14' E 014°09'7 7.4
2017-Mar-24 16:33N 55°17' E 014°20'8 8.1
2017-Mar-24 15:33N 55°23' E 014°29'8 8.0
2017-Mar-24 14:31N 55°29' E 014°40'7 7.7
2017-Mar-24 13:33N 55°33' E 014°51'8 8.1
2017-Mar-24 12:32N 55°37' E 015°04'8 8.5
2017-Mar-24 11:33N 55°41' E 015°17'9 8.5
2017-Mar-24 10:33N 55°45' E 015°30'9 8.5
2017-Mar-24 09:33N 55°49' E 015°43'9 8.7
2017-Mar-24 08:34N 55°54' E 015°57'9 8.7
2017-Mar-24 07:33N 55°58' E 016°10'9 8.7
2017-Mar-24 06:33N 56°02' E 016°24'9 8.8
2017-Mar-24 05:33N 56°07' E 016°37'9 8.8
2017-Mar-24 04:34N 56°12' E 016°50'9 8.7
2017-Mar-24 03:34N 56°17' E 017°02'  

Dump ship's entire track history